Palominas, Arizona
Current Conditions -  °F | °C
As of 9:56 AM on Saturday 22 Nov 2014 (Local Time) from KFHU Reporting Station
Clear Clear  
Wind Chill: 55°   Ceiling: Unl
Heat Index: 55°   Visibility: 10mi
Dew Point: 24°   Wind: 0mph
Humidity: 30%   Direction: NA
Pressure: 30.15"   Gusts: NA
Location:  31.4041°N, 110.306°W
Report Text: KFHU 221656Z AUTO 00000KT 10SM CLR 13/M04 A3015 RMK AO2 SLP189 T01281044 $
Loading
Personal Weather Stations






























Interactive Weather Map New forecast layout! Learn more

10-Day Weather Forecast

Advertisements
Track Severe Weather on mobile